createdAt,value
2017-02-17T00:01:04.391Z,4.34
2017-02-17T00:02:13.469Z,4.37
2017-02-17T00:03:22.535Z,4.45
2017-02-17T00:04:31.591Z,4.32
2017-02-17T00:05:41.044Z,4.22
2017-02-17T00:06:50.922Z,4.29
2017-02-17T00:08:00.776Z,4.2
2017-02-17T00:09:09.855Z,4.24
2017-02-17T00:10:19.689Z,4.36
2017-02-17T00:11:29.145Z,4.16
2017-02-17T00:12:38.219Z,4.11
2017-02-17T00:13:48.048Z,4.18
2017-02-17T00:14:57.225Z,4.06
2017-02-17T00:16:06.696Z,4.14
2017-02-17T00:17:16.535Z,4.14
2017-02-17T00:18:25.986Z,4.22
2017-02-17T00:19:35.457Z,4.18
2017-02-17T00:20:45.339Z,4.12
2017-02-17T00:21:54.788Z,4.27
2017-02-17T00:23:04.225Z,4.14
2017-02-17T00:24:13.676Z,4.27
2017-02-17T00:25:22.742Z,4.42
2017-02-17T00:26:32.572Z,4.34
2017-02-17T00:27:42.044Z,4.42
2017-02-17T00:28:51.117Z,4.29
2017-02-17T00:30:00.168Z,4.23
2017-02-17T00:31:09.637Z,4.2
2017-02-17T00:32:18.419Z,4.14
2017-02-17T00:33:27.496Z,4.14
2017-02-17T00:34:36.211Z,4.18
2017-02-17T00:35:45.280Z,4.18
2017-02-17T00:36:54.747Z,4.26
2017-02-17T00:38:03.426Z,4.2
2017-02-17T00:39:12.491Z,4.09
2017-02-17T00:40:21.587Z,4.09
2017-02-17T00:41:30.653Z,4.14
2017-02-17T00:42:40.489Z,4.12
2017-02-17T00:43:49.549Z,4.06
2017-02-17T00:44:58.231Z,4
2017-02-17T00:46:07.297Z,3.9
2017-02-17T00:47:15.970Z,4.05
2017-02-17T00:48:25.806Z,4
2017-02-17T00:49:34.886Z,4
2017-02-17T00:50:43.943Z,3.88
2017-02-17T00:51:53.019Z,3.97
2017-02-17T00:53:02.090Z,3.86
2017-02-17T00:54:11.165Z,4
2017-02-17T00:55:19.855Z,4
2017-02-17T00:56:28.563Z,3.96
2017-02-17T00:57:37.245Z,3.88
2017-02-17T00:58:46.695Z,4.02
2017-02-17T00:59:56.531Z,3.98
2017-02-17T01:01:06.760Z,3.91
2017-02-17T01:02:15.461Z,3.84
2017-02-17T01:03:24.535Z,3.84
2017-02-17T01:04:33.602Z,3.83
2017-02-17T01:05:43.092Z,3.84
2017-02-17T01:06:52.153Z,3.83
2017-02-17T01:08:00.841Z,3.87
2017-02-17T01:09:10.663Z,3.88
2017-02-17T01:10:20.484Z,3.9
2017-02-17T01:11:29.945Z,3.79
2017-02-17T01:12:39.786Z,3.57
2017-02-17T01:13:50.009Z,3.7
2017-02-17T01:14:59.081Z,3.69
2017-02-17T01:16:08.151Z,3.69
2017-02-17T01:17:17.233Z,3.75
2017-02-17T01:18:26.327Z,3.76
2017-02-17T01:19:35.025Z,3.86
2017-02-17T01:20:44.109Z,3.84
2017-02-17T01:21:54.346Z,3.9
2017-02-17T01:23:03.415Z,3.83
2017-02-17T01:24:13.619Z,3.83
2017-02-17T01:25:23.457Z,3.78
2017-02-17T01:26:32.949Z,3.78
2017-02-17T01:27:41.651Z,3.68
2017-02-17T01:28:50.713Z,3.69
2017-02-17T01:29:59.778Z,3.78
2017-02-17T01:31:08.872Z,3.76
2017-02-17T01:32:17.946Z,3.96
2017-02-17T01:33:26.644Z,4.02
2017-02-17T01:34:35.707Z,3.98
2017-02-17T01:35:44.399Z,4
2017-02-17T01:36:53.844Z,4.06
2017-02-17T01:38:02.529Z,4.11
2017-02-17T01:39:12.365Z,4.05
2017-02-17T01:40:21.795Z,4.15
2017-02-17T01:41:30.866Z,4.18
2017-02-17T01:42:40.309Z,4.16
2017-02-17T01:43:50.130Z,4.23
2017-02-17T01:44:59.197Z,4.2
2017-02-17T01:46:07.886Z,4.44
2017-02-17T01:47:16.958Z,4.37
2017-02-17T01:48:25.655Z,4.41
2017-02-17T01:49:34.730Z,4.4
2017-02-17T01:50:43.788Z,4.48
2017-02-17T01:51:53.248Z,4.47
2017-02-17T01:53:02.323Z,4.52
2017-02-17T01:54:11.782Z,4.59
2017-02-17T01:55:20.857Z,4.62
2017-02-17T01:56:30.297Z,4.55
2017-02-17T01:57:39.360Z,4.58
2017-02-17T01:58:49.201Z,4.59
2017-02-17T01:59:58.644Z,4.59
2017-02-17T02:01:08.460Z,4.59
2017-02-17T02:02:17.921Z,4.54
2017-02-17T02:03:27.369Z,4.5
2017-02-17T02:04:36.455Z,4.51
2017-02-17T02:05:45.521Z,4.59
2017-02-17T02:06:54.958Z,4.73
2017-02-17T02:08:04.034Z,4.66
2017-02-17T02:09:13.482Z,4.73
2017-02-17T02:10:22.557Z,4.8
2017-02-17T02:11:31.634Z,4.73
2017-02-17T02:12:41.069Z,4.8
2017-02-17T02:13:49.753Z,4.8
2017-02-17T02:14:58.816Z,4.84
2017-02-17T02:16:07.500Z,4.86
2017-02-17T02:17:16.188Z,4.78
2017-02-17T02:18:25.256Z,4.84
2017-02-17T02:19:35.094Z,4.67
2017-02-17T02:20:44.192Z,4.7
2017-02-17T02:21:54.043Z,4.7
2017-02-17T02:23:03.853Z,4.84
2017-02-17T02:24:12.907Z,4.88
2017-02-17T02:25:21.980Z,4.92
2017-02-17T02:26:31.050Z,4.75
2017-02-17T02:27:40.116Z,4.66
2017-02-17T02:28:50.344Z,4.67
2017-02-17T02:29:59.427Z,4.73
2017-02-17T02:31:08.874Z,4.72
2017-02-17T02:32:18.325Z,4.73
2017-02-17T02:33:27.032Z,4.59
2017-02-17T02:34:36.105Z,4.51
2017-02-17T02:35:45.185Z,4.54
2017-02-17T02:36:55.398Z,4.5
2017-02-17T02:38:04.844Z,4.6
2017-02-17T02:39:14.689Z,4.59
2017-02-17T02:40:23.362Z,4.66
2017-02-17T02:41:32.047Z,4.69
2017-02-17T02:42:41.118Z,4.67
2017-02-17T02:43:50.199Z,4.69
2017-02-17T02:44:59.259Z,4.78
2017-02-17T02:46:08.712Z,4.7
2017-02-17T02:47:17.790Z,4.84
2017-02-17T02:48:27.235Z,4.78
2017-02-17T02:49:36.296Z,4.72
2017-02-17T02:50:45.378Z,4.78
2017-02-17T02:51:54.439Z,4.84
2017-02-17T02:53:03.892Z,4.72
2017-02-17T02:54:12.992Z,4.86
2017-02-17T02:55:22.049Z,4.96
2017-02-17T02:56:31.496Z,4.89
2017-02-17T02:57:41.705Z,4.8
2017-02-17T02:58:51.144Z,4.84
2017-02-17T03:00:00.200Z,4.8
2017-02-17T03:01:10.034Z,4.75
2017-02-17T03:02:18.707Z,4.8
2017-02-17T03:03:27.412Z,4.85
2017-02-17T03:04:36.864Z,4.75
2017-02-17T03:05:46.696Z,4.84
2017-02-17T03:06:56.195Z,4.86
2017-02-17T03:08:05.649Z,4.89
2017-02-17T03:09:14.336Z,4.92
2017-02-17T03:10:23.777Z,4.96
2017-02-17T03:11:32.841Z,4.86
2017-02-17T03:12:42.676Z,4.84
2017-02-17T03:13:52.127Z,4.92
2017-02-17T03:15:01.223Z,5.03
2017-02-17T03:16:10.295Z,4.99
2017-02-17T03:17:19.741Z,5
2017-02-17T03:18:28.792Z,5
2017-02-17T03:19:37.482Z,5.06
2017-02-17T03:20:46.177Z,5.06
2017-02-17T03:21:55.237Z,4.99
2017-02-17T03:23:04.713Z,4.97
2017-02-17T03:24:14.154Z,5.02
2017-02-17T03:25:22.876Z,4.97
2017-02-17T03:26:31.950Z,4.97
2017-02-17T03:27:41.020Z,5
2017-02-17T03:28:50.460Z,4.89
2017-02-17T03:29:59.918Z,4.91
2017-02-17T03:31:08.987Z,4.86
2017-02-17T03:32:18.043Z,4.96
2017-02-17T03:33:27.487Z,4.88
2017-02-17T03:34:36.924Z,4.99
2017-02-17T03:35:46.768Z,4.99
2017-02-17T03:36:55.849Z,5.04
2017-02-17T03:38:05.310Z,5.1
2017-02-17T03:39:14.369Z,5.07
2017-02-17T03:40:24.206Z,5.1
2017-02-17T03:41:33.654Z,5.07
2017-02-17T03:42:43.100Z,5.04
2017-02-17T03:43:52.170Z,5
2017-02-17T03:45:00.849Z,5.09
2017-02-17T03:46:09.922Z,5.17
2017-02-17T03:47:19.004Z,5.13
2017-02-17T03:48:28.093Z,5.3
2017-02-17T03:49:36.779Z,5.36
2017-02-17T03:50:45.872Z,5.36
2017-02-17T03:51:55.320Z,5.36
2017-02-17T03:53:04.768Z,5.24
2017-02-17T03:54:14.603Z,5.18
2017-02-17T03:55:24.061Z,5.22
2017-02-17T03:56:33.508Z,5.2
2017-02-17T03:57:42.588Z,5.22
2017-02-17T03:58:52.041Z,5.21
2017-02-17T04:00:01.501Z,5.17
2017-02-17T04:01:10.565Z,5.25
2017-02-17T04:02:19.650Z,5.21
2017-02-17T04:03:29.105Z,5.22
2017-02-17T04:04:38.947Z,5.31
2017-02-17T04:05:48.024Z,5.27
2017-02-17T04:06:57.088Z,5.33
2017-02-17T04:08:06.970Z,5.33
2017-02-17T04:09:16.795Z,5.35
2017-02-17T04:10:26.263Z,5.24
2017-02-17T04:11:35.716Z,5.27
2017-02-17T04:12:45.162Z,5.27
2017-02-17T04:13:54.241Z,5.22
2017-02-17T04:15:03.302Z,5.28
2017-02-17T04:16:12.384Z,5.31
2017-02-17T04:17:21.872Z,5.31
2017-02-17T04:18:31.328Z,5.42
2017-02-17T04:19:40.811Z,5.35
2017-02-17T04:20:50.642Z,5.3
2017-02-17T04:22:00.473Z,5.3
2017-02-17T04:23:09.949Z,5.31
2017-02-17T04:24:19.771Z,5.4
2017-02-17T04:25:28.442Z,5.25
2017-02-17T04:26:38.267Z,5.3
2017-02-17T04:27:48.082Z,5.38
2017-02-17T04:28:57.141Z,5.35
2017-02-17T04:30:06.200Z,5.35
2017-02-17T04:31:15.260Z,5.46
2017-02-17T04:32:24.739Z,5.43
2017-02-17T04:33:33.462Z,5.45
2017-02-17T04:34:42.559Z,5.48
2017-02-17T04:35:51.617Z,5.42
2017-02-17T04:37:00.676Z,5.39
2017-02-17T04:38:10.163Z,5.39
2017-02-17T04:39:20.004Z,5.39
2017-02-17T04:40:29.468Z,5.39
2017-02-17T04:41:39.309Z,5.33
2017-02-17T04:42:49.546Z,5.38
2017-02-17T04:43:58.621Z,5.38
2017-02-17T04:45:07.293Z,5.38
2017-02-17T04:46:15.979Z,5.39
2017-02-17T04:47:25.814Z,5.35
2017-02-17T04:48:34.901Z,5.36
2017-02-17T04:49:44.728Z,5.3
2017-02-17T04:50:53.794Z,5.4
2017-02-17T04:52:03.252Z,5.35
2017-02-17T04:53:11.955Z,5.42
2017-02-17T04:54:21.407Z,5.35
2017-02-17T04:55:31.223Z,5.31
2017-02-17T04:56:40.278Z,5.33
2017-02-17T04:57:49.725Z,5.27
2017-02-17T04:58:59.178Z,5.28
2017-02-17T05:00:08.249Z,5.38
2017-02-17T05:01:17.718Z,5.33
2017-02-17T05:02:26.407Z,5.31
2017-02-17T05:03:36.247Z,5.38
2017-02-17T05:04:45.691Z,5.3
2017-02-17T05:05:54.761Z,5.39
2017-02-17T05:07:04.210Z,5.35
2017-02-17T05:08:14.032Z,5.42
2017-02-17T05:09:23.105Z,5.35
2017-02-17T05:10:33.339Z,5.39
2017-02-17T05:11:42.792Z,5.38
2017-02-17T05:12:51.873Z,5.4
2017-02-17T05:14:01.316Z,5.39
2017-02-17T05:15:11.547Z,5.45
2017-02-17T05:16:20.613Z,5.36
2017-02-17T05:17:29.678Z,5.38
2017-02-17T05:18:38.746Z,5.39
2017-02-17T05:19:48.570Z,5.35
2017-02-17T05:20:57.638Z,5.42
2017-02-17T05:22:06.317Z,5.46
2017-02-17T05:23:16.167Z,5.56
2017-02-17T05:24:25.621Z,5.48
2017-02-17T05:25:35.474Z,5.56
2017-02-17T05:26:44.914Z,5.53
2017-02-17T05:27:54.006Z,5.48
2017-02-17T05:29:03.456Z,5.53
2017-02-17T05:30:12.535Z,5.6
2017-02-17T05:31:21.970Z,5.56
2017-02-17T05:32:31.814Z,5.46
2017-02-17T05:33:41.251Z,5.45
2017-02-17T05:34:50.703Z,5.45
2017-02-17T05:36:00.563Z,5.45
2017-02-17T05:37:10.379Z,5.4
2017-02-17T05:38:19.452Z,5.43
2017-02-17T05:39:28.906Z,5.46
2017-02-17T05:40:37.988Z,5.54
2017-02-17T05:41:47.082Z,5.42
2017-02-17T05:42:56.159Z,5.39
2017-02-17T05:44:05.995Z,5.35
2017-02-17T05:45:15.447Z,5.36
2017-02-17T05:46:24.896Z,5.4
2017-02-17T05:47:33.572Z,5.36
2017-02-17T05:48:42.681Z,5.4
2017-02-17T05:49:52.537Z,5.38
2017-02-17T05:51:01.619Z,5.4
2017-02-17T05:52:11.077Z,5.51
2017-02-17T05:53:19.782Z,5.49
2017-02-17T05:54:28.849Z,5.49
2017-02-17T05:55:37.912Z,5.54
2017-02-17T05:56:47.739Z,5.53
2017-02-17T05:57:57.592Z,5.53
2017-02-17T05:59:06.277Z,5.58
2017-02-17T06:00:15.726Z,5.48
2017-02-17T06:01:24.819Z,5.53
2017-02-17T06:02:34.661Z,5.58
2017-02-17T06:03:43.351Z,5.58
2017-02-17T06:04:52.060Z,5.54
2017-02-17T06:06:01.129Z,5.64
2017-02-17T06:07:10.577Z,5.53
2017-02-17T06:08:19.667Z,5.61
2017-02-17T06:09:28.755Z,5.6
2017-02-17T06:10:38.194Z,5.49
2017-02-17T06:11:48.031Z,5.54
2017-02-17T06:12:57.099Z,5.51
2017-02-17T06:14:05.805Z,5.6
2017-02-17T06:15:15.258Z,5.61
2017-02-17T06:16:24.711Z,5.6
2017-02-17T06:17:33.791Z,5.6
2017-02-17T06:18:43.244Z,5.65
2017-02-17T06:19:51.934Z,5.64
2017-02-17T06:21:01.394Z,5.67
2017-02-17T06:22:10.095Z,5.64
2017-02-17T06:23:18.784Z,5.64
2017-02-17T06:24:27.850Z,5.67
2017-02-17T06:25:37.686Z,5.65
2017-02-17T06:26:47.132Z,5.65
2017-02-17T06:27:57.020Z,5.67
2017-02-17T06:29:06.100Z,5.81
2017-02-17T06:30:15.175Z,5.76
2017-02-17T06:31:24.242Z,5.65
2017-02-17T06:32:33.692Z,5.65
2017-02-17T06:33:42.779Z,5.67
2017-02-17T06:34:51.469Z,5.75
2017-02-17T06:36:00.152Z,5.72
2017-02-17T06:37:09.608Z,5.78
2017-02-17T06:38:19.455Z,5.68
2017-02-17T06:39:28.143Z,5.75
2017-02-17T06:40:37.212Z,5.72
2017-02-17T06:41:47.040Z,5.65
2017-02-17T06:42:56.863Z,5.79
2017-02-17T06:44:06.701Z,5.79
2017-02-17T06:45:16.201Z,5.76
2017-02-17T06:46:25.645Z,5.81
2017-02-17T06:47:34.327Z,5.83
2017-02-17T06:48:43.776Z,5.71
2017-02-17T06:49:52.861Z,5.83
2017-02-17T06:51:02.711Z,5.85
2017-02-17T06:52:12.174Z,5.74
2017-02-17T06:53:21.239Z,5.78
2017-02-17T06:54:30.312Z,5.74
2017-02-17T06:55:39.379Z,5.81
2017-02-17T06:56:48.825Z,5.71
2017-02-17T06:57:57.911Z,5.72
2017-02-17T06:59:07.760Z,5.72
2017-02-17T07:00:16.835Z,5.83
2017-02-17T07:01:25.925Z,5.79
2017-02-17T07:02:35.242Z,5.75
2017-02-17T07:03:43.938Z,5.79
2017-02-17T07:04:52.998Z,5.82
2017-02-17T07:06:02.053Z,5.78
2017-02-17T07:07:11.502Z,5.79
2017-02-17T07:08:20.567Z,5.79
2017-02-17T07:09:30.044Z,5.78
2017-02-17T07:10:38.734Z,5.79
2017-02-17T07:11:47.811Z,5.76
2017-02-17T07:12:56.495Z,5.83
2017-02-17T07:14:05.570Z,5.83
2017-02-17T07:15:14.636Z,5.86
2017-02-17T07:16:23.702Z,5.86
2017-02-17T07:17:33.190Z,5.83
2017-02-17T07:18:41.869Z,5.86
2017-02-17T07:19:51.329Z,5.93
2017-02-17T07:21:00.786Z,5.83
2017-02-17T07:22:09.861Z,5.9
2017-02-17T07:23:18.924Z,5.89
2017-02-17T07:24:28.004Z,5.75
2017-02-17T07:25:37.466Z,5.89
2017-02-17T07:26:46.933Z,5.93
2017-02-17T07:27:56.382Z,5.86
2017-02-17T07:29:06.606Z,5.91
2017-02-17T07:30:16.046Z,5.85
2017-02-17T07:31:24.734Z,5.9
2017-02-17T07:32:34.570Z,5.91
2017-02-17T07:33:44.419Z,5.89
2017-02-17T07:34:53.105Z,5.86
2017-02-17T07:36:01.780Z,5.91
2017-02-17T07:37:10.849Z,5.97
2017-02-17T07:38:20.311Z,5.91
2017-02-17T07:39:29.749Z,5.99
2017-02-17T07:40:38.816Z,5.91
2017-02-17T07:41:48.259Z,5.94
2017-02-17T07:42:57.705Z,5.9
2017-02-17T07:44:07.543Z,5.94
2017-02-17T07:45:16.979Z,6
2017-02-17T07:46:26.791Z,5.99
2017-02-17T07:47:36.228Z,6.04
2017-02-17T07:48:46.076Z,6.04
2017-02-17T07:49:54.784Z,6.03
2017-02-17T07:51:04.633Z,6.04
2017-02-17T07:52:13.692Z,6.06
2017-02-17T07:53:22.758Z,6.12
2017-02-17T07:54:32.597Z,6.01
2017-02-17T07:55:42.045Z,6.11
2017-02-17T07:56:51.112Z,6.04
2017-02-17T07:58:00.944Z,6.12
2017-02-17T07:59:10.781Z,6.01
2017-02-17T08:00:19.845Z,6.06
2017-02-17T08:01:28.930Z,6.04
2017-02-17T08:02:37.989Z,6
2017-02-17T08:03:47.822Z,6.03
2017-02-17T08:04:56.496Z,6.01
2017-02-17T08:06:05.562Z,6.15
2017-02-17T08:07:15.421Z,6.12
2017-02-17T08:08:24.477Z,6.12
2017-02-17T08:09:34.305Z,6.11
2017-02-17T08:10:43.377Z,6.11
2017-02-17T08:11:52.455Z,6.15
2017-02-17T08:13:01.921Z,6.14
2017-02-17T08:14:11.383Z,6.18
2017-02-17T08:15:20.451Z,6.25
2017-02-17T08:16:30.288Z,6.3
2017-02-17T08:17:39.729Z,6.37
2017-02-17T08:18:49.187Z,6.31
2017-02-17T08:19:58.639Z,6.4
2017-02-17T08:21:08.120Z,6.33
2017-02-17T08:22:17.966Z,6.41
2017-02-17T08:23:27.810Z,6.46
2017-02-17T08:24:37.287Z,6.4
2017-02-17T08:25:46.363Z,6.37
2017-02-17T08:26:55.446Z,6.4
2017-02-17T08:28:04.888Z,6.41
2017-02-17T08:29:13.947Z,6.48
2017-02-17T08:30:23.395Z,6.58
2017-02-17T08:31:32.849Z,6.46
2017-02-17T08:32:42.688Z,6.55
2017-02-17T08:33:52.526Z,6.49
2017-02-17T08:35:01.989Z,6.55
2017-02-17T08:36:11.465Z,6.51
2017-02-17T08:37:20.542Z,6.55
2017-02-17T08:38:29.221Z,6.52
2017-02-17T08:39:38.302Z,6.49
2017-02-17T08:40:47.390Z,6.52
2017-02-17T08:41:56.469Z,6.49
2017-02-17T08:43:06.691Z,6.59
2017-02-17T08:44:16.512Z,6.66
2017-02-17T08:45:25.954Z,6.59
2017-02-17T08:46:34.647Z,6.67
2017-02-17T08:47:43.709Z,6.61
2017-02-17T08:48:53.152Z,6.73
2017-02-17T08:50:02.224Z,6.71
2017-02-17T08:51:12.053Z,6.73
2017-02-17T08:52:21.121Z,6.77
2017-02-17T08:53:30.795Z,6.71
2017-02-17T08:54:39.890Z,6.8
2017-02-17T08:55:48.973Z,6.76
2017-02-17T08:56:58.807Z,6.81
2017-02-17T08:58:07.864Z,6.76
2017-02-17T08:59:16.967Z,6.81
2017-02-17T09:00:26.051Z,6.8
2017-02-17T09:01:35.143Z,6.79
2017-02-17T09:02:44.244Z,6.79
2017-02-17T09:03:53.300Z,6.79
2017-02-17T09:05:02.758Z,6.76
2017-02-17T09:06:12.580Z,6.74
2017-02-17T09:07:21.641Z,6.77
2017-02-17T09:08:30.715Z,6.79
2017-02-17T09:09:40.162Z,6.79
2017-02-17T09:10:49.229Z,6.85
2017-02-17T09:11:57.912Z,6.8
2017-02-17T09:13:07.377Z,6.84
2017-02-17T09:14:16.460Z,6.91
2017-02-17T09:15:25.922Z,6.79
2017-02-17T09:16:35.000Z,6.81
2017-02-17T09:17:44.456Z,6.81
2017-02-17T09:18:53.527Z,6.91
2017-02-17T09:20:02.980Z,6.88
2017-02-17T09:21:12.424Z,6.95
2017-02-17T09:22:22.248Z,6.89
2017-02-17T09:23:31.714Z,6.98
2017-02-17T09:24:40.789Z,6.92
2017-02-17T09:25:49.499Z,6.98
2017-02-17T09:26:58.944Z,7.03
2017-02-17T09:28:08.045Z,7.1
2017-02-17T09:29:17.150Z,7.07
2017-02-17T09:30:25.848Z,7.1
2017-02-17T09:31:34.522Z,7.03
2017-02-17T09:32:43.982Z,7.06
2017-02-17T09:33:52.677Z,7.12
2017-02-17T09:35:02.510Z,6.98
2017-02-17T09:36:12.359Z,7.07
2017-02-17T09:37:21.818Z,7.12
2017-02-17T09:38:30.900Z,7.07
2017-02-17T09:39:39.610Z,7.07
2017-02-17T09:40:49.045Z,7.09
2017-02-17T09:41:58.876Z,7.1
2017-02-17T09:43:08.699Z,7.07
2017-02-17T09:44:17.768Z,7.07
2017-02-17T09:45:27.223Z,7.09
2017-02-17T09:46:36.672Z,7.21
2017-02-17T09:47:45.345Z,7.15
2017-02-17T09:48:54.864Z,7.17
2017-02-17T09:50:04.699Z,7.17
2017-02-17T09:51:13.771Z,7.12
2017-02-17T09:52:22.844Z,7.17
2017-02-17T09:53:32.280Z,7.25
2017-02-17T09:54:41.378Z,7.24
2017-02-17T09:55:50.845Z,7.21
2017-02-17T09:57:00.295Z,7.16
2017-02-17T09:58:09.379Z,7.24
2017-02-17T09:59:19.243Z,7.2
2017-02-17T10:00:27.929Z,7.07
2017-02-17T10:01:36.997Z,7.07
2017-02-17T10:02:46.462Z,7.09
2017-02-17T10:03:55.947Z,7.07
2017-02-17T10:05:04.646Z,7.06
2017-02-17T10:06:14.490Z,7.06
2017-02-17T10:07:23.954Z,7.02
2017-02-17T10:08:33.065Z,7.05
2017-02-17T10:09:42.170Z,7.03
2017-02-17T10:10:52.004Z,7.06
2017-02-17T10:12:02.226Z,7.1
2017-02-17T10:13:11.315Z,7.02
2017-02-17T10:14:20.773Z,6.97
2017-02-17T10:15:29.878Z,6.88
2017-02-17T10:16:38.565Z,6.89
2017-02-17T10:17:48.399Z,6.94
2017-02-17T10:18:57.456Z,6.97
2017-02-17T10:20:07.740Z,6.87
2017-02-17T10:21:17.178Z,6.92
2017-02-17T10:22:26.630Z,6.94
2017-02-17T10:23:36.075Z,6.97
2017-02-17T10:24:45.535Z,6.91
2017-02-17T10:25:55.014Z,6.91
2017-02-17T10:27:04.455Z,6.95
2017-02-17T10:28:14.277Z,6.91
2017-02-17T10:29:23.341Z,7.09
2017-02-17T10:30:32.788Z,7.03
2017-02-17T10:31:41.862Z,6.95
2017-02-17T10:32:50.562Z,6.98
2017-02-17T10:33:59.625Z,7.02
2017-02-17T10:35:09.079Z,7.09
2017-02-17T10:36:18.527Z,7.07
2017-02-17T10:37:27.590Z,6.92
2017-02-17T10:38:37.042Z,7.03
2017-02-17T10:39:46.499Z,6.97
2017-02-17T10:40:56.330Z,6.98
2017-02-17T10:42:05.771Z,7.02
2017-02-17T10:43:14.468Z,7.05
2017-02-17T10:44:23.533Z,6.99
2017-02-17T10:45:32.224Z,7.12
2017-02-17T10:46:41.292Z,6.98
2017-02-17T10:47:50.747Z,7.1
2017-02-17T10:48:59.826Z,6.97
2017-02-17T10:50:08.900Z,7.07
2017-02-17T10:51:18.342Z,7.05
2017-02-17T10:52:27.812Z,7.25
2017-02-17T10:53:36.886Z,7.55
2017-02-17T10:54:45.964Z,7.71
2017-02-17T10:55:55.065Z,7.72
2017-02-17T10:57:04.897Z,7.79
2017-02-17T10:58:14.350Z,7.89
2017-02-17T10:59:23.032Z,7.92
2017-02-17T11:00:32.892Z,7.85
2017-02-17T11:01:42.346Z,7.87
2017-02-17T11:02:52.196Z,7.85
2017-02-17T11:04:01.264Z,7.75
2017-02-17T11:05:11.097Z,7.72
2017-02-17T11:06:19.782Z,7.53
2017-02-17T11:07:30.009Z,7.52
2017-02-17T11:08:39.837Z,7.5
2017-02-17T11:09:48.513Z,7.5
2017-02-17T11:10:58.751Z,7.55
2017-02-17T11:12:07.824Z,7.61
2017-02-17T11:13:17.291Z,7.64
2017-02-17T11:14:26.380Z,7.55
2017-02-17T11:15:35.878Z,7.69
2017-02-17T11:16:45.716Z,7.77
2017-02-17T11:17:55.156Z,7.85
2017-02-17T11:19:04.617Z,7.98
2017-02-17T11:20:14.061Z,8.15
2017-02-17T11:21:23.166Z,8.25
2017-02-17T11:22:32.237Z,8.23
2017-02-17T11:23:41.321Z,8.05
2017-02-17T11:24:51.542Z,8.16
2017-02-17T11:26:00.220Z,8.25
2017-02-17T11:27:09.666Z,8.28
2017-02-17T11:28:19.109Z,8.43
2017-02-17T11:29:28.186Z,8.5
2017-02-17T11:30:37.639Z,8.53
2017-02-17T11:31:46.702Z,8.65
2017-02-17T11:32:56.150Z,8.45
2017-02-17T11:34:04.844Z,8.41
2017-02-17T11:35:13.537Z,8.25
2017-02-17T11:36:22.592Z,8.19
2017-02-17T11:37:31.281Z,8.18
2017-02-17T11:38:41.119Z,8.22
2017-02-17T11:39:50.181Z,8.22
2017-02-17T11:40:58.878Z,8.2
2017-02-17T11:42:07.555Z,8.12
2017-02-17T11:43:17.012Z,8.1
2017-02-17T11:44:26.467Z,7.95
2017-02-17T11:45:35.916Z,7.83
2017-02-17T11:46:45.788Z,7.85
2017-02-17T11:47:55.257Z,7.74
2017-02-17T11:49:04.730Z,7.69
2017-02-17T11:50:13.418Z,7.77
2017-02-17T11:51:22.502Z,7.75
2017-02-17T11:52:31.207Z,7.71
2017-02-17T11:53:40.696Z,7.77
2017-02-17T11:54:49.781Z,7.8
2017-02-17T11:55:59.243Z,7.72
2017-02-17T11:57:09.106Z,7.82
2017-02-17T11:58:18.562Z,7.9
2017-02-17T11:59:27.640Z,7.8
2017-02-17T12:00:37.848Z,7.8
2017-02-17T12:01:46.947Z,7.8
2017-02-17T12:02:55.635Z,7.82
2017-02-17T12:04:05.099Z,7.92
2017-02-17T12:05:14.937Z,8.04
2017-02-17T12:06:24.379Z,8.11
2017-02-17T12:07:33.882Z,8.11
2017-02-17T12:08:42.946Z,8.15
2017-02-17T12:09:52.023Z,8.16
2017-02-17T12:11:01.091Z,8.12
2017-02-17T12:12:10.156Z,8.15
2017-02-17T12:13:19.227Z,8.12
2017-02-17T12:14:29.110Z,8.22
2017-02-17T12:15:38.562Z,8.28
2017-02-17T12:16:48.424Z,8.43
2017-02-17T12:17:57.886Z,8.4
2017-02-17T12:19:06.970Z,8.61
2017-02-17T12:20:16.415Z,8.56
2017-02-17T12:21:25.487Z,8.7
2017-02-17T12:22:34.953Z,8.71
2017-02-17T12:23:44.033Z,8.7
2017-02-17T12:24:53.493Z,8.65
2017-02-17T12:26:02.937Z,8.62
2017-02-17T12:27:12.024Z,8.66
2017-02-17T12:28:21.167Z,8.68
2017-02-17T12:29:30.237Z,8.7
2017-02-17T12:30:38.930Z,8.71
2017-02-17T12:31:48.377Z,8.77
2017-02-17T12:32:57.842Z,8.77
2017-02-17T12:34:06.907Z,8.84
2017-02-17T12:35:15.610Z,8.83
2017-02-17T12:36:24.319Z,8.91
2017-02-17T12:37:33.392Z,8.87
2017-02-17T12:38:42.088Z,9.05
2017-02-17T12:39:51.160Z,8.94
2017-02-17T12:41:00.637Z,9.14
2017-02-17T12:42:10.852Z,9.17
2017-02-17T12:43:20.315Z,9.08
2017-02-17T12:44:29.211Z,9.38
2017-02-17T12:45:39.037Z,9.26
2017-02-17T12:46:48.492Z,9.42
2017-02-17T12:47:57.581Z,9.24
2017-02-17T12:49:07.029Z,9.21
2017-02-17T12:50:16.121Z,9.2
2017-02-17T12:51:26.325Z,9.26
2017-02-17T12:52:36.153Z,9.2
2017-02-17T12:53:45.226Z,9.24
2017-02-17T12:54:54.722Z,9.24
2017-02-17T12:56:04.568Z,9.18
2017-02-17T12:57:14.018Z,-39.99
2017-02-17T12:58:23.080Z,-39.99
2017-02-17T12:59:32.939Z,-39.99
2017-02-17T13:00:42.386Z,-39.99
2017-02-17T13:01:51.491Z,-39.99
2017-02-17T13:03:01.336Z,-39.99
2017-02-17T13:04:11.186Z,-39.99
2017-02-17T13:05:19.876Z,-39.99
2017-02-17T13:06:28.567Z,-39.99
2017-02-17T13:07:40.063Z,11.72
2017-02-17T13:08:49.568Z,12.2
2017-02-17T13:09:59.416Z,11.6
2017-02-17T13:11:08.888Z,10.74
2017-02-17T13:12:17.569Z,10.18
2017-02-17T13:13:27.402Z,9.86
2017-02-17T13:14:36.848Z,9.75
2017-02-17T13:15:46.306Z,9.69
2017-02-17T13:16:55.770Z,9.65
2017-02-17T13:18:05.237Z,9.72
2017-02-17T13:19:14.694Z,9.79
2017-02-17T13:20:23.770Z,9.81
2017-02-17T13:21:33.222Z,9.87
2017-02-17T13:22:43.823Z,9.91
2017-02-17T13:23:53.290Z,9.9
2017-02-17T13:25:02.374Z,9.84
2017-02-17T13:26:12.231Z,9.76
2017-02-17T13:27:21.697Z,9.74
2017-02-17T13:28:30.393Z,9.75
2017-02-17T13:29:39.839Z,9.6
2017-02-17T13:30:48.524Z,9.6
2017-02-17T13:31:57.985Z,9.48
2017-02-17T13:33:07.449Z,9.38
2017-02-17T13:34:16.894Z,9.4
2017-02-17T13:35:25.977Z,9.43
2017-02-17T13:36:35.056Z,9.38
2017-02-17T13:37:44.537Z,9.58
2017-02-17T13:38:54.392Z,9.64
2017-02-17T13:40:04.228Z,9.64
2017-02-17T13:41:13.707Z,9.64
2017-02-17T13:42:23.183Z,9.54
2017-02-17T13:43:33.027Z,9.56
2017-02-17T13:44:42.106Z,9.43
2017-02-17T13:45:51.951Z,9.48
2017-02-17T13:47:01.028Z,9.42
2017-02-17T13:48:10.883Z,9.4
2017-02-17T13:49:19.958Z,9.33
2017-02-17T13:50:29.061Z,9.38
2017-02-17T13:51:38.893Z,9.31
2017-02-17T13:52:47.968Z,9.31
2017-02-17T13:53:57.412Z,9.38
2017-02-17T13:55:07.252Z,9.46
2017-02-17T13:56:16.730Z,9.54
2017-02-17T13:57:26.306Z,9.6
2017-02-17T13:58:36.159Z,9.51
2017-02-17T13:59:45.238Z,9.54
2017-02-17T14:00:54.308Z,9.51
2017-02-17T14:02:03.395Z,9.56
2017-02-17T14:03:12.116Z,9.38
2017-02-17T14:04:21.190Z,9.33
2017-02-17T14:05:29.869Z,9.36
2017-02-17T14:06:39.723Z,9.35
2017-02-17T14:07:49.179Z,9.21
2017-02-17T14:08:57.887Z,9.2
2017-02-17T14:10:06.962Z,9.21
2017-02-17T14:11:16.793Z,9.14
2017-02-17T14:12:25.872Z,9.2
2017-02-17T14:13:34.942Z,9.15
2017-02-17T14:14:44.415Z,9.21
2017-02-17T14:15:53.110Z,9.18
2017-02-17T14:17:02.575Z,9.11
2017-02-17T14:18:11.664Z,9.11
2017-02-17T14:19:21.126Z,8.98
2017-02-17T14:20:30.206Z,8.96
2017-02-17T14:21:40.060Z,8.92
2017-02-17T14:22:49.904Z,8.89
2017-02-17T14:23:59.355Z,8.84
2017-02-17T14:25:09.190Z,8.81
2017-02-17T14:26:17.881Z,8.87
2017-02-17T14:27:26.964Z,8.84
2017-02-17T14:28:36.035Z,8.76
2017-02-17T14:29:45.111Z,8.76
2017-02-17T14:30:54.575Z,8.63
2017-02-17T14:32:04.028Z,8.58
2017-02-17T14:33:13.098Z,8.55
2017-02-17T14:34:22.159Z,8.45
2017-02-17T14:35:31.624Z,8.47
2017-02-17T14:36:40.313Z,8.41
2017-02-17T14:37:49.768Z,8.37
2017-02-17T14:38:58.470Z,8.36
2017-02-17T14:40:07.163Z,8.37
2017-02-17T14:41:17.021Z,8.19
2017-02-17T14:42:26.095Z,8.16
2017-02-17T14:43:35.547Z,8.05
2017-02-17T14:44:45.025Z,8.16
2017-02-17T14:45:54.199Z,8.12
2017-02-17T14:47:03.273Z,8.1
2017-02-17T14:48:12.726Z,8.11
2017-02-17T14:49:21.803Z,8.08
2017-02-17T14:50:31.245Z,8.04
2017-02-17T14:51:40.334Z,8.08
2017-02-17T14:52:49.796Z,8.11
2017-02-17T14:53:58.890Z,8.16
2017-02-17T14:55:09.115Z,8.1
2017-02-17T14:56:18.197Z,8.2
2017-02-17T14:57:27.306Z,8.18
2017-02-17T14:58:36.384Z,8.18
2017-02-17T14:59:46.221Z,8.12
2017-02-17T15:00:55.666Z,8.28
2017-02-17T15:02:05.113Z,8.36
2017-02-17T15:03:14.168Z,8.36
2017-02-17T15:04:24.402Z,8.36
2017-02-17T15:05:34.247Z,8.36
2017-02-17T15:06:42.951Z,8.37
2017-02-17T15:07:52.017Z,8.37
2017-02-17T15:09:01.119Z,8.48
2017-02-17T15:10:10.579Z,8.41
2017-02-17T15:11:19.640Z,8.4
2017-02-17T15:12:28.731Z,8.41
2017-02-17T15:13:37.796Z,8.5
2017-02-17T15:14:47.258Z,8.48
2017-02-17T15:15:57.090Z,8.53
2017-02-17T15:17:06.165Z,8.55
2017-02-17T15:18:16.021Z,8.53
2017-02-17T15:19:25.099Z,8.52
2017-02-17T15:20:34.172Z,8.48
2017-02-17T15:21:43.645Z,8.48
2017-02-17T15:22:53.097Z,8.34
2017-02-17T15:24:01.808Z,8.36
2017-02-17T15:25:11.273Z,8.19
2017-02-17T15:26:20.360Z,8.19